Time;durP1;ratioP1;P1;durP2;ratioP2;P2;SDS_P1;SDS_P2;PMS_P1;PMS_P2;Temp;Humidity;BMP_temperature;BMP_pressure;BME280_temperature;BME280_humidity;BME280_pressure;Samples;Min_cycle;Max_cycle;Signal;HPM_P1;HPM_P2
2023/05/29 00:01:25;;;;;;;8.90;6.30;;;;;;;;;;5074842;28;20965;-73
2023/05/29 00:03:52;;;;;;;9.27;7.33;;;;;;;;;;5074966;28;20456;-73
2023/05/29 00:06:19;;;;;;;7.40;6.00;;;;;;;;;;5074801;28;20475;-73
2023/05/29 00:08:46;;;;;;;15.00;7.00;;;;;;;;;;5074910;28;20472;-73
2023/05/29 00:11:14;;;;;;;11.73;6.60;;;;;;;;;;5074814;28;20458;-73
2023/05/29 00:13:41;;;;;;;10.40;6.47;;;;;;;;;;5074794;28;20935;-73
2023/05/29 00:16:10;;;;;;;10.37;6.93;;;;;;;;;;5073536;28;20451;-74
2023/05/29 00:18:44;;;;;;;8.83;6.00;;;;;;;;;;5074470;28;20467;-73
2023/05/29 00:21:11;;;;;;;10.43;6.57;;;;;;;;;;5074671;28;20459;-73
2023/05/29 00:23:38;;;;;;;8.20;5.93;;;;;;;;;;5074634;28;20977;-73
2023/05/29 00:26:06;;;;;;;11.67;6.13;;;;;;;;;;5074009;28;20452;-73
2023/05/29 00:28:33;;;;;;;12.27;6.37;;;;;;;;;;5074210;28;20487;-73
2023/05/29 00:31:00;;;;;;;11.43;7.53;;;;;;;;;;5074287;28;20458;-73
2023/05/29 00:33:28;;;;;;;8.93;6.00;;;;;;;;;;5074345;28;21070;-73
2023/05/29 00:35:56;;;;;;;10.20;6.63;;;;;;;;;;5074377;28;20452;-73
2023/05/29 00:38:23;;;;;;;8.93;7.10;;;;;;;;;;5074065;28;20491;-73
2023/05/29 00:40:50;;;;;;;11.80;6.00;;;;;;;;;;5074194;28;20447;-73
2023/05/29 00:43:17;;;;;;;12.33;7.23;;;;;;;;;;5074037;28;20448;-73
2023/05/29 00:45:44;;;;;;;10.93;6.53;;;;;;;;;;5074050;28;20451;-73
2023/05/29 00:48:11;;;;;;;10.30;7.77;;;;;;;;;;5073935;28;20953;-73
2023/05/29 00:50:40;;;;;;;12.67;7.60;;;;;;;;;;5073737;28;20456;-73
2023/05/29 00:53:07;;;;;;;9.03;7.03;;;;;;;;;;5073762;28;20557;-73
2023/05/29 00:55:35;;;;;;;9.50;6.23;;;;;;;;;;5073874;28;20459;-73
2023/05/29 00:58:02;;;;;;;8.63;7.30;;;;;;;;;;5073744;28;20836;-73
2023/05/29 01:00:30;;;;;;;8.70;6.70;;;;;;;;;;5073477;28;20482;-73
2023/05/29 01:02:58;;;;;;;9.90;7.57;;;;;;;;;;5073718;28;20455;-73
2023/05/29 01:05:25;;;;;;;8.57;6.30;;;;;;;;;;5073653;28;20447;-73
2023/05/29 01:07:54;;;;;;;11.23;7.07;;;;;;;;;;5073848;28;20451;-73
2023/05/29 01:10:21;;;;;;;9.47;6.30;;;;;;;;;;5073550;28;20480;-73
2023/05/29 01:12:50;;;;;;;16.63;6.00;;;;;;;;;;5073835;28;20938;-73
2023/05/29 01:15:24;;;;;;;8.73;7.00;;;;;;;;;;5073422;28;20481;-73
2023/05/29 01:18:01;;;;;;;11.60;7.10;;;;;;;;;;5073481;28;20451;-73
2023/05/29 01:20:31;;;;;;;11.60;6.90;;;;;;;;;;5073208;28;20511;-73
2023/05/29 01:23:17;;;;;;;10.07;6.30;;;;;;;;;;5073444;28;20452;-73
2023/05/29 01:26:04;;;;;;;9.03;5.83;;;;;;;;;;5073020;28;20968;-73
2023/05/29 01:28:34;;;;;;;10.37;6.73;;;;;;;;;;5072949;28;20891;-73
2023/05/29 01:31:02;;;;;;;10.03;6.43;;;;;;;;;;5073469;28;20946;-73
2023/05/29 01:33:29;;;;;;;9.83;6.20;;;;;;;;;;5073281;28;20854;-73
2023/05/29 01:35:56;;;;;;;12.80;6.30;;;;;;;;;;5073202;28;20454;-73
2023/05/29 01:38:23;;;;;;;11.00;7.40;;;;;;;;;;5072854;28;20459;-73
2023/05/29 01:40:51;;;;;;;16.60;7.80;;;;;;;;;;5073182;28;20460;-73
2023/05/29 01:43:18;;;;;;;8.93;6.00;;;;;;;;;;5073075;28;20459;-73
2023/05/29 01:45:46;;;;;;;10.90;7.23;;;;;;;;;;5073092;28;20456;-73
2023/05/29 01:48:13;;;;;;;10.10;6.40;;;;;;;;;;5073033;28;20436;-73
2023/05/29 01:50:43;;;;;;;9.90;5.93;;;;;;;;;;5073262;28;20448;-73
2023/05/29 01:53:10;;;;;;;9.10;6.03;;;;;;;;;;5072932;28;20506;-73
2023/05/29 01:55:37;;;;;;;11.80;5.87;;;;;;;;;;5073178;28;20520;-73
2023/05/29 01:58:05;;;;;;;12.00;7.23;;;;;;;;;;5073018;28;20463;-73
2023/05/29 02:00:32;;;;;;;12.60;7.00;;;;;;;;;;5072804;28;20472;-73
2023/05/29 02:03:02;;;;;;;8.80;6.70;;;;;;;;;;5073265;28;20459;-73
2023/05/29 02:05:29;;;;;;;7.37;6.10;;;;;;;;;;5072946;28;20507;-73
2023/05/29 02:07:56;;;;;;;11.73;7.47;;;;;;;;;;5072852;28;20459;-73
2023/05/29 02:10:23;;;;;;;12.63;5.97;;;;;;;;;;5072538;28;20478;-73
2023/05/29 02:12:50;;;;;;;12.20;6.90;;;;;;;;;;5072958;28;20452;-73
2023/05/29 02:15:17;;;;;;;11.70;7.43;;;;;;;;;;5072912;28;21017;-73
2023/05/29 02:17:44;;;;;;;12.20;6.37;;;;;;;;;;5072869;28;20452;-73
2023/05/29 02:20:13;;;;;;;10.10;6.07;;;;;;;;;;5072487;28;20495;-73
2023/05/29 02:22:40;;;;;;;10.93;6.90;;;;;;;;;;5072886;28;20451;-73
2023/05/29 02:25:08;;;;;;;9.03;6.40;;;;;;;;;;5072087;28;20440;-73
2023/05/29 02:27:35;;;;;;;11.30;6.73;;;;;;;;;;5072892;28;20989;-73
2023/05/29 02:30:02;;;;;;;15.53;7.30;;;;;;;;;;5072238;28;20483;-73
2023/05/29 02:32:29;;;;;;;14.30;7.80;;;;;;;;;;5072669;28;20456;-73
2023/05/29 02:34:56;;;;;;;8.10;6.07;;;;;;;;;;5072577;28;20487;-73
2023/05/29 02:37:25;;;;;;;18.53;7.40;;;;;;;;;;5072469;28;20447;-73
2023/05/29 02:39:53;;;;;;;8.90;6.53;;;;;;;;;;5075111;28;20503;-73
2023/05/29 02:42:20;;;;;;;12.43;6.90;;;;;;;;;;5076452;28;20460;-73
2023/05/29 02:44:47;;;;;;;11.20;7.20;;;;;;;;;;5076494;28;20542;-73
2023/05/29 02:47:14;;;;;;;9.17;7.00;;;;;;;;;;5076401;28;20460;-73
2023/05/29 02:49:41;;;;;;;9.07;6.33;;;;;;;;;;5076029;28;21047;-73
2023/05/29 02:52:09;;;;;;;10.53;6.60;;;;;;;;;;5076260;28;20835;-73
2023/05/29 02:54:38;;;;;;;14.97;7.13;;;;;;;;;;5076232;28;20519;-73
2023/05/29 02:57:05;;;;;;;10.50;6.93;;;;;;;;;;5076465;28;20461;-73
2023/05/29 02:59:32;;;;;;;9.80;6.33;;;;;;;;;;5075900;28;20471;-73
2023/05/29 03:02:00;;;;;;;9.80;6.80;;;;;;;;;;5076069;28;20497;-73
2023/05/29 03:04:27;;;;;;;8.30;6.20;;;;;;;;;;5075836;28;20459;-73
2023/05/29 03:06:55;;;;;;;8.63;6.27;;;;;;;;;;5076119;28;20871;-73
2023/05/29 03:09:22;;;;;;;10.50;6.90;;;;;;;;;;5076032;28;20905;-73
2023/05/29 03:11:51;;;;;;;10.90;7.00;;;;;;;;;;5075944;28;20448;-73
2023/05/29 03:14:21;;;;;;;11.93;6.87;;;;;;;;;;5075779;28;20608;-73
2023/05/29 03:16:49;;;;;;;9.10;5.77;;;;;;;;;;5076071;28;20455;-73
2023/05/29 03:19:16;;;;;;;8.97;6.70;;;;;;;;;;5075327;28;20488;-73
2023/05/29 03:21:43;;;;;;;12.30;6.80;;;;;;;;;;5075402;28;20451;-73
2023/05/29 03:24:10;;;;;;;8.83;5.77;;;;;;;;;;5075212;28;20869;-73
2023/05/29 03:26:38;;;;;;;11.03;7.07;;;;;;;;;;5076045;28;20495;-73
2023/05/29 03:29:07;;;;;;;11.20;6.30;;;;;;;;;;5075259;28;21057;-73
2023/05/29 03:31:34;;;;;;;11.00;6.93;;;;;;;;;;5075427;28;20455;-73
2023/05/29 03:34:02;;;;;;;11.90;6.73;;;;;;;;;;5075662;28;20472;-73
2023/05/29 03:36:29;;;;;;;10.33;6.00;;;;;;;;;;5075590;28;20448;-73
2023/05/29 03:38:56;;;;;;;11.03;7.03;;;;;;;;;;5075153;28;20467;-73
2023/05/29 03:41:23;;;;;;;10.13;6.23;;;;;;;;;;5075487;28;20459;-73
2023/05/29 03:43:50;;;;;;;10.60;6.23;;;;;;;;;;5075339;28;20455;-73
2023/05/29 03:46:19;;;;;;;10.83;6.67;;;;;;;;;;5075068;28;20456;-73
2023/05/29 03:48:46;;;;;;;9.13;5.90;;;;;;;;;;5075113;28;20474;-73
2023/05/29 03:51:13;;;;;;;8.40;6.37;;;;;;;;;;5075096;28;20459;-73
2023/05/29 03:53:40;;;;;;;9.07;6.30;;;;;;;;;;5075500;28;20439;-73
2023/05/29 03:56:07;;;;;;;15.60;6.70;;;;;;;;;;5075007;28;21005;-73
2023/05/29 03:58:36;;;;;;;8.80;6.50;;;;;;;;;;5074940;28;20479;-73
2023/05/29 04:01:03;;;;;;;13.63;6.20;;;;;;;;;;5074806;28;20487;-73
2023/05/29 04:03:32;;;;;;;10.33;6.17;;;;;;;;;;5075154;28;20448;-73
2023/05/29 04:05:59;;;;;;;9.90;5.83;;;;;;;;;;5074949;28;20447;-73
2023/05/29 04:08:26;;;;;;;6.57;5.70;;;;;;;;;;5074713;28;20455;-73
2023/05/29 04:10:54;;;;;;;14.63;6.40;;;;;;;;;;5074827;28;20447;-73
2023/05/29 04:13:21;;;;;;;15.17;13.57;;;;;;;;;;5074777;28;20483;-73
2023/05/29 04:15:48;;;;;;;8.47;7.37;;;;;;;;;;5074625;28;20487;-73
2023/05/29 04:18:15;;;;;;;7.23;6.47;;;;;;;;;;5074546;28;20501;-73
2023/05/29 04:20:46;;;;;;;12.20;7.10;;;;;;;;;;5074628;28;20459;-73
2023/05/29 04:23:14;;;;;;;6.93;5.67;;;;;;;;;;5074690;28;20543;-73
2023/05/29 04:25:41;;;;;;;10.63;6.10;;;;;;;;;;5074191;28;20454;-74
2023/05/29 04:28:10;;;;;;;10.30;6.00;;;;;;;;;;5074292;28;20459;-74
2023/05/29 04:30:38;;;;;;;6.10;4.87;;;;;;;;;;5074427;28;20468;-74
2023/05/29 04:33:06;;;;;;;17.20;7.30;;;;;;;;;;5074464;28;20460;-74
2023/05/29 04:35:33;;;;;;;9.30;5.23;;;;;;;;;;5074348;28;20488;-74
2023/05/29 04:38:01;;;;;;;10.40;5.57;;;;;;;;;;5074189;28;20946;-74
2023/05/29 04:40:28;;;;;;;9.53;6.50;;;;;;;;;;5073831;28;20476;-74
2023/05/29 04:42:55;;;;;;;8.57;5.73;;;;;;;;;;5074299;28;20963;-74
2023/05/29 04:45:23;;;;;;;6.87;6.17;;;;;;;;;;5074145;28;20833;-74
2023/05/29 04:47:53;;;;;;;8.80;6.20;;;;;;;;;;5074215;28;20472;-74
2023/05/29 04:50:20;;;;;;;7.10;5.50;;;;;;;;;;5073780;28;20486;-74
2023/05/29 04:52:47;;;;;;;7.13;5.07;;;;;;;;;;5073987;28;20444;-74
2023/05/29 04:55:16;;;;;;;11.07;6.37;;;;;;;;;;5073890;28;20488;-74
2023/05/29 04:57:43;;;;;;;6.27;4.83;;;;;;;;;;5073917;28;20455;-74
2023/05/29 05:00:13;;;;;;;10.37;5.70;;;;;;;;;;5073639;28;20892;-74
2023/05/29 05:02:41;;;;;;;10.23;5.50;;;;;;;;;;5073348;28;20456;-74
2023/05/29 05:05:08;;;;;;;11.03;6.10;;;;;;;;;;5073638;28;20458;-74
2023/05/29 05:07:36;;;;;;;6.40;5.70;;;;;;;;;;5073788;28;20448;-74
2023/05/29 05:10:03;;;;;;;5.83;5.20;;;;;;;;;;5073408;28;20828;-74
2023/05/29 05:12:31;;;;;;;6.97;5.40;;;;;;;;;;5073954;28;20462;-74
2023/05/29 05:14:58;;;;;;;8.20;6.10;;;;;;;;;;5073505;28;20480;-74
2023/05/29 05:17:25;;;;;;;9.80;6.50;;;;;;;;;;5073732;28;20827;-74
2023/05/29 05:19:53;;;;;;;8.27;4.90;;;;;;;;;;5073185;28;20479;-74
2023/05/29 05:22:20;;;;;;;7.47;5.97;;;;;;;;;;5073645;28;20447;-74
2023/05/29 05:24:47;;;;;;;6.07;5.47;;;;;;;;;;5073137;28;20451;-74
2023/05/29 05:27:14;;;;;;;8.63;5.80;;;;;;;;;;5073452;28;20862;-74
2023/05/29 05:29:43;;;;;;;6.00;4.90;;;;;;;;;;5073027;28;20951;-74
2023/05/29 05:32:10;;;;;;;7.27;5.47;;;;;;;;;;5073239;28;20458;-74
2023/05/29 05:34:37;;;;;;;7.80;5.90;;;;;;;;;;5073178;28;20474;-74
2023/05/29 05:37:04;;;;;;;6.77;5.37;;;;;;;;;;5073195;28;20448;-74
2023/05/29 05:39:31;;;;;;;8.17;5.17;;;;;;;;;;5073103;28;20498;-74
2023/05/29 05:41:58;;;;;;;8.70;5.87;;;;;;;;;;5073299;28;20470;-74
2023/05/29 05:44:25;;;;;;;10.63;6.57;;;;;;;;;;5073126;28;20451;-74
2023/05/29 05:46:54;;;;;;;7.00;5.83;;;;;;;;;;5073232;28;20452;-74
2023/05/29 05:49:21;;;;;;;7.27;5.53;;;;;;;;;;5072705;28;20479;-74
2023/05/29 05:51:48;;;;;;;6.20;5.60;;;;;;;;;;5073235;28;20455;-74
2023/05/29 05:54:15;;;;;;;5.57;4.97;;;;;;;;;;5073017;28;20490;-74
2023/05/29 05:56:42;;;;;;;6.90;5.43;;;;;;;;;;5073033;28;20491;-74
2023/05/29 05:59:09;;;;;;;5.37;4.70;;;;;;;;;;5072654;28;20476;-75
2023/05/29 06:01:37;;;;;;;7.00;5.37;;;;;;;;;;5072905;28;20855;-74
2023/05/29 06:04:06;;;;;;;6.10;4.93;;;;;;;;;;5072753;28;20501;-74
2023/05/29 06:06:33;;;;;;;6.40;5.80;;;;;;;;;;5072889;28;20510;-74
2023/05/29 06:09:00;;;;;;;5.60;4.23;;;;;;;;;;5072682;28;20992;-74
2023/05/29 06:11:27;;;;;;;10.17;5.30;;;;;;;;;;5072940;28;20459;-74
2023/05/29 06:13:55;;;;;;;6.67;5.60;;;;;;;;;;5074005;28;20451;-74
2023/05/29 06:16:23;;;;;;;7.20;5.13;;;;;;;;;;5076770;28;20488;-74
2023/05/29 06:18:50;;;;;;;6.80;5.37;;;;;;;;;;5076661;28;20514;-74
2023/05/29 06:21:19;;;;;;;7.07;5.30;;;;;;;;;;5076630;28;20954;-74
2023/05/29 06:23:46;;;;;;;6.53;5.27;;;;;;;;;;5076677;28;20458;-75
2023/05/29 06:26:13;;;;;;;5.70;5.17;;;;;;;;;;5076820;28;20451;-74
2023/05/29 06:28:40;;;;;;;5.67;5.17;;;;;;;;;;5076553;28;20479;-74
2023/05/29 06:31:07;;;;;;;7.43;6.00;;;;;;;;;;5076730;28;20461;-74
2023/05/29 06:33:34;;;;;;;8.13;5.80;;;;;;;;;;5076934;28;20884;-74
2023/05/29 06:36:02;;;;;;;5.57;5.07;;;;;;;;;;5076511;28;20491;-74
2023/05/29 06:38:30;;;;;;;8.93;5.67;;;;;;;;;;5076385;28;20454;-74
2023/05/29 06:40:57;;;;;;;10.17;6.70;;;;;;;;;;5076578;28;20491;-74
2023/05/29 06:43:25;;;;;;;8.90;6.30;;;;;;;;;;5076484;28;20456;-74
2023/05/29 06:45:52;;;;;;;10.00;6.03;;;;;;;;;;5076554;28;20463;-74
2023/05/29 06:48:19;;;;;;;7.90;6.83;;;;;;;;;;5076136;28;20456;-74
2023/05/29 06:50:47;;;;;;;7.17;5.50;;;;;;;;;;5076328;28;20448;-74
2023/05/29 06:53:14;;;;;;;10.60;5.70;;;;;;;;;;5076187;28;20455;-74
2023/05/29 06:55:42;;;;;;;7.37;5.50;;;;;;;;;;5076080;28;20478;-74
2023/05/29 06:58:09;;;;;;;7.10;6.33;;;;;;;;;;5076130;28;20456;-74
2023/05/29 07:00:37;;;;;;;7.80;5.80;;;;;;;;;;5075931;28;20645;-74
2023/05/29 07:03:04;;;;;;;8.23;6.50;;;;;;;;;;5076165;28;20838;-74
2023/05/29 07:05:31;;;;;;;8.30;5.70;;;;;;;;;;5076127;28;20443;-74
2023/05/29 07:07:58;;;;;;;13.00;6.70;;;;;;;;;;5076037;28;20451;-74
2023/05/29 07:10:25;;;;;;;10.23;6.10;;;;;;;;;;5075867;28;20468;-75
2023/05/29 07:12:53;;;;;;;12.63;7.67;;;;;;;;;;5075918;28;20443;-75
2023/05/29 07:15:21;;;;;;;8.50;6.20;;;;;;;;;;5075670;28;20869;-75
2023/05/29 07:17:48;;;;;;;8.87;5.50;;;;;;;;;;5075926;28;20486;-75
2023/05/29 07:20:15;;;;;;;7.27;5.90;;;;;;;;;;5075597;28;20471;-75
2023/05/29 07:22:42;;;;;;;8.20;6.43;;;;;;;;;;5075754;28;20542;-75
2023/05/29 07:25:10;;;;;;;10.47;5.67;;;;;;;;;;5074905;28;20460;-75
2023/05/29 07:27:37;;;;;;;6.20;5.40;;;;;;;;;;5075797;28;20470;-75
2023/05/29 07:30:06;;;;;;;7.80;5.57;;;;;;;;;;5075181;28;20471;-75
2023/05/29 07:32:33;;;;;;;8.30;6.10;;;;;;;;;;5075680;28;20458;-75
2023/05/29 07:35:00;;;;;;;8.40;6.93;;;;;;;;;;5075476;28;20456;-75
2023/05/29 07:37:29;;;;;;;7.50;6.80;;;;;;;;;;5075473;28;20451;-75
2023/05/29 07:39:56;;;;;;;9.97;6.03;;;;;;;;;;5075160;28;20476;-75
2023/05/29 07:42:23;;;;;;;11.97;6.00;;;;;;;;;;5075356;28;20459;-75
2023/05/29 07:44:50;;;;;;;6.03;5.30;;;;;;;;;;5075400;28;20451;-75
2023/05/29 07:47:19;;;;;;;14.03;10.70;;;;;;;;;;5075505;28;20456;-75
2023/05/29 07:49:46;;;;;;;7.40;6.33;;;;;;;;;;5075072;28;20985;-75
2023/05/29 07:52:13;;;;;;;6.87;5.73;;;;;;;;;;5075262;28;20459;-75
2023/05/29 07:54:40;;;;;;;7.57;5.90;;;;;;;;;;5075189;28;20451;-75
2023/05/29 07:57:09;;;;;;;7.00;5.73;;;;;;;;;;5075177;28;20491;-75
2023/05/29 07:59:36;;;;;;;6.70;5.67;;;;;;;;;;5075134;28;20910;-75
2023/05/29 08:02:04;;;;;;;7.90;5.60;;;;;;;;;;5075104;28;20447;-75
2023/05/29 08:04:33;;;;;;;13.90;5.90;;;;;;;;;;5075196;28;20447;-75
2023/05/29 08:07:01;;;;;;;11.23;6.23;;;;;;;;;;5074885;28;21132;-75
2023/05/29 08:09:28;;;;;;;9.90;5.87;;;;;;;;;;5074615;28;20499;-75
2023/05/29 08:11:55;;;;;;;7.60;6.20;;;;;;;;;;5074973;28;20459;-75
2023/05/29 08:14:22;;;;;;;9.23;6.03;;;;;;;;;;5074717;28;20451;-75
2023/05/29 08:16:49;;;;;;;6.73;5.73;;;;;;;;;;5074702;28;20509;-75
2023/05/29 08:19:17;;;;;;;8.77;6.20;;;;;;;;;;5074265;28;20475;-75
2023/05/29 08:21:45;;;;;;;8.53;5.80;;;;;;;;;;5074665;28;20459;-75
2023/05/29 08:24:12;;;;;;;6.50;5.70;;;;;;;;;;5074070;28;20539;-75
2023/05/29 08:26:39;;;;;;;8.60;6.40;;;;;;;;;;5074600;28;20443;-75
2023/05/29 08:29:06;;;;;;;7.60;6.23;;;;;;;;;;5074010;28;20483;-74
2023/05/29 08:31:34;;;;;;;8.00;5.80;;;;;;;;;;5074630;28;20455;-74
2023/05/29 08:34:01;;;;;;;11.73;6.20;;;;;;;;;;5074356;28;20812;-74
2023/05/29 08:36:28;;;;;;;10.60;6.27;;;;;;;;;;5073695;28;20495;-74
2023/05/29 08:38:56;;;;;;;8.13;5.47;;;;;;;;;;5074107;28;20479;-74
2023/05/29 08:41:27;;;;;;;10.70;5.50;;;;;;;;;;5074390;28;20451;-74
2023/05/29 08:43:54;;;;;;;7.13;5.87;;;;;;;;;;5074309;28;20452;-74
2023/05/29 08:46:22;;;;;;;10.07;6.23;;;;;;;;;;5074100;28;20444;-74
2023/05/29 08:48:50;;;;;;;10.17;5.67;;;;;;;;;;5073756;28;20479;-75
2023/05/29 08:51:20;;;;;;;8.20;6.33;;;;;;;;;;5073913;28;20459;-75
2023/05/29 08:53:48;;;;;;;8.83;6.10;;;;;;;;;;5074109;28;20942;-75
2023/05/29 08:56:16;;;;;;;8.30;6.60;;;;;;;;;;5073745;28;20484;-75
2023/05/29 08:58:45;;;;;;;6.33;5.13;;;;;;;;;;5073650;28;20476;-74
2023/05/29 09:01:12;;;;;;;6.30;5.40;;;;;;;;;;5073940;28;20456;-74
2023/05/29 09:03:41;;;;;;;6.83;5.20;;;;;;;;;;5073929;28;20953;-74
2023/05/29 09:06:09;;;;;;;10.20;6.33;;;;;;;;;;5073811;28;20443;-74
2023/05/29 09:08:37;;;;;;;6.60;5.43;;;;;;;;;;5073414;28;20507;-75
2023/05/29 09:11:04;;;;;;;8.23;6.20;;;;;;;;;;5073766;28;20823;-75
2023/05/29 09:13:32;;;;;;;6.00;5.00;;;;;;;;;;5073653;28;20828;-75
2023/05/29 09:16:00;;;;;;;6.40;5.70;;;;;;;;;;5073601;28;20515;-75
2023/05/29 09:18:30;;;;;;;6.00;5.10;;;;;;;;;;5073357;28;20996;-75
2023/05/29 09:20:57;;;;;;;10.23;5.70;;;;;;;;;;5072782;28;20525;-75
2023/05/29 09:23:24;;;;;;;9.27;5.63;;;;;;;;;;5073170;28;20456;-74
2023/05/29 09:25:53;;;;;;;7.17;5.63;;;;;;;;;;5073004;28;20847;-75
2023/05/29 09:28:21;;;;;;;7.33;6.00;;;;;;;;;;5073145;28;20467;-75
2023/05/29 09:30:49;;;;;;;8.90;5.27;;;;;;;;;;5073289;28;20447;-74
2023/05/29 09:33:17;;;;;;;6.13;5.37;;;;;;;;;;5073585;28;20479;-74
2023/05/29 09:35:45;;;;;;;11.50;5.33;;;;;;;;;;5073238;28;20458;-74
2023/05/29 09:38:13;;;;;;;7.10;5.70;;;;;;;;;;5073424;28;20803;-75
2023/05/29 09:40:41;;;;;;;7.60;5.03;;;;;;;;;;5073265;28;20828;-74
2023/05/29 09:43:11;;;;;;;10.33;5.37;;;;;;;;;;5073095;28;20464;-74
2023/05/29 09:45:39;;;;;;;7.30;5.07;;;;;;;;;;5073337;28;20459;-75
2023/05/29 09:48:08;;;;;;;8.27;5.10;;;;;;;;;;5073110;28;20879;-74
2023/05/29 09:50:36;;;;;;;6.50;4.80;;;;;;;;;;5072903;28;20513;-74
2023/05/29 09:53:03;;;;;;;9.57;4.70;;;;;;;;;;5073037;28;20467;-74
2023/05/29 09:55:33;;;;;;;7.67;4.47;;;;;;;;;;5073125;28;20498;-75
2023/05/29 09:58:01;;;;;;;4.90;3.97;;;;;;;;;;5073007;28;20488;-75
2023/05/29 10:00:28;;;;;;;6.70;4.60;;;;;;;;;;5072968;28;20896;-75
2023/05/29 10:02:55;;;;;;;7.10;4.33;;;;;;;;;;5073056;28;20436;-74
2023/05/29 10:05:24;;;;;;;6.10;5.50;;;;;;;;;;5072859;28;20542;-74
2023/05/29 10:07:52;;;;;;;6.97;4.77;;;;;;;;;;5072904;28;20452;-74
2023/05/29 10:10:20;;;;;;;6.17;4.90;;;;;;;;;;5072598;28;20499;-74
2023/05/29 10:12:50;;;;;;;4.90;4.27;;;;;;;;;;5072964;28;20509;-74
2023/05/29 10:15:20;;;;;;;15.20;4.90;;;;;;;;;;5073086;28;20460;-74
2023/05/29 10:17:52;;;;;;;6.33;3.80;;;;;;;;;;5072786;28;20574;-75
2023/05/29 10:20:21;;;;;;;5.97;3.77;;;;;;;;;;5072524;28;20478;-75
2023/05/29 10:22:51;;;;;;;6.77;4.73;;;;;;;;;;5072487;28;20560;-75
2023/05/29 10:25:20;;;;;;;9.90;4.87;;;;;;;;;;5072833;28;20913;-74
2023/05/29 10:27:47;;;;;;;5.27;4.23;;;;;;;;;;5072792;28;20941;-74
2023/05/29 10:30:17;;;;;;;8.27;5.27;;;;;;;;;;5072497;28;20817;-74
2023/05/29 10:32:55;;;;;;;8.53;4.60;;;;;;;;;;5072786;28;20463;-75
2023/05/29 10:35:26;;;;;;;7.40;5.20;;;;;;;;;;5072611;28;20934;-75
2023/05/29 10:37:58;;;;;;;9.87;5.00;;;;;;;;;;5072540;28;21031;-74
2023/05/29 10:40:26;;;;;;;7.40;4.70;;;;;;;;;;5072321;28;20833;-75
2023/05/29 10:42:57;;;;;;;6.30;4.80;;;;;;;;;;5072761;28;20538;-75
2023/05/29 10:45:43;;;;;;;6.37;4.77;;;;;;;;;;5072251;28;20444;-75
2023/05/29 10:48:29;;;;;;;5.67;4.70;;;;;;;;;;5072369;28;20447;-75
2023/05/29 10:50:57;;;;;;;5.20;4.40;;;;;;;;;;5072419;28;20466;-75
2023/05/29 10:53:26;;;;;;;7.43;4.83;;;;;;;;;;5072344;28;20463;-75
2023/05/29 10:55:54;;;;;;;7.53;4.50;;;;;;;;;;5072462;28;20502;-74
2023/05/29 10:58:23;;;;;;;6.03;5.00;;;;;;;;;;5072090;28;20989;-75
2023/05/29 11:00:53;;;;;;;6.60;4.57;;;;;;;;;;5075053;28;20550;-75
2023/05/29 11:03:21;;;;;;;10.00;4.83;;;;;;;;;;5075953;28;20538;-75
2023/05/29 11:05:57;;;;;;;5.83;4.20;;;;;;;;;;5076314;28;20451;-75
2023/05/29 11:08:34;;;;;;;6.80;4.90;;;;;;;;;;5057317;28;20964;-75
2023/05/29 11:11:01;;;;;;;8.80;4.80;;;;;;;;;;5056166;28;20460;-74
2023/05/29 11:13:34;;;;;;;4.20;3.77;;;;;;;;;;5056015;28;20476;-74
2023/05/29 11:16:11;;;;;;;5.07;4.10;;;;;;;;;;5056089;28;20458;-75
2023/05/29 11:18:40;;;;;;;10.93;4.43;;;;;;;;;;5055805;28;20487;-75
2023/05/29 11:21:14;;;;;;;5.27;4.53;;;;;;;;;;5055639;28;20965;-75
2023/05/29 11:23:43;;;;;;;4.10;3.70;;;;;;;;;;5055851;28;20458;-75
2023/05/29 11:26:10;;;;;;;5.30;4.53;;;;;;;;;;5055470;28;20448;-75
2023/05/29 11:28:38;;;;;;;6.93;4.90;;;;;;;;;;5055228;28;20488;-75
2023/05/29 11:31:09;;;;;;;7.00;4.03;;;;;;;;;;5055489;28;20456;-75
2023/05/29 11:33:39;;;;;;;5.30;4.00;;;;;;;;;;5055658;28;20495;-75
2023/05/29 11:36:07;;;;;;;5.77;4.20;;;;;;;;;;5055663;28;20464;-75
2023/05/29 11:38:34;;;;;;;5.20;3.50;;;;;;;;;;5055143;28;20507;-75
2023/05/29 11:41:04;;;;;;;6.20;4.23;;;;;;;;;;5055280;28;20461;-75
2023/05/29 11:43:31;;;;;;;5.80;3.87;;;;;;;;;;5055491;28;20445;-75
2023/05/29 11:45:58;;;;;;;7.27;4.73;;;;;;;;;;5055392;28;20947;-75
2023/05/29 11:48:25;;;;;;;7.73;4.60;;;;;;;;;;5055004;28;20495;-75
2023/05/29 11:50:52;;;;;;;9.43;4.53;;;;;;;;;;5055210;28;20484;-75
2023/05/29 11:53:19;;;;;;;10.60;4.53;;;;;;;;;;5055144;28;20457;-75
2023/05/29 11:55:47;;;;;;;8.53;5.00;;;;;;;;;;5055051;28;20849;-75
2023/05/29 11:58:16;;;;;;;5.53;4.70;;;;;;;;;;5054859;28;20492;-75
2023/05/29 12:00:44;;;;;;;4.90;4.40;;;;;;;;;;5055006;28;20452;-75
2023/05/29 12:03:12;;;;;;;8.40;4.37;;;;;;;;;;5054902;28;20456;-75
2023/05/29 12:05:46;;;;;;;5.37;3.80;;;;;;;;;;5054777;28;20464;-75
2023/05/29 12:08:13;;;;;;;7.50;5.43;;;;;;;;;;5054607;28;20454;-75
2023/05/29 12:10:48;;;;;;;5.87;4.33;;;;;;;;;;5054393;28;21022;-75
2023/05/29 12:13:18;;;;;;;7.93;4.20;;;;;;;;;;5054449;28;20864;-74
2023/05/29 12:15:45;;;;;;;6.63;4.33;;;;;;;;;;5054952;28;20453;-74
2023/05/29 12:18:12;;;;;;;5.80;4.13;;;;;;;;;;5054638;28;20491;-74
2023/05/29 12:20:39;;;;;;;5.10;4.17;;;;;;;;;;5054682;28;20452;-75
2023/05/29 12:23:06;;;;;;;5.03;4.30;;;;;;;;;;5054449;28;20575;-75
2023/05/29 12:25:36;;;;;;;6.00;4.57;;;;;;;;;;5054306;28;20456;-75
2023/05/29 12:28:04;;;;;;;11.10;7.07;;;;;;;;;;5054502;28;20901;-75
2023/05/29 12:30:32;;;;;;;7.20;4.83;;;;;;;;;;5054538;28;20480;-75
2023/05/29 12:33:01;;;;;;;5.10;3.83;;;;;;;;;;5054275;28;20463;-75
2023/05/29 12:35:29;;;;;;;6.50;4.37;;;;;;;;;;5054497;28;20448;-74
2023/05/29 12:37:57;;;;;;;6.80;4.53;;;;;;;;;;5054168;28;20493;-74
2023/05/29 12:40:25;;;;;;;4.77;4.13;;;;;;;;;;5053890;28;20476;-75
2023/05/29 12:42:55;;;;;;;6.37;4.50;;;;;;;;;;5054237;28;20453;-75
2023/05/29 12:45:23;;;;;;;5.53;4.00;;;;;;;;;;5054461;28;20471;-75
2023/05/29 12:47:56;;;;;;;6.83;4.43;;;;;;;;;;5054164;28;20460;-75
2023/05/29 12:50:24;;;;;;;7.20;4.30;;;;;;;;;;5053884;28;20852;-74
2023/05/29 12:52:55;;;;;;;5.90;4.10;;;;;;;;;;5054082;28;20456;-75
2023/05/29 12:55:22;;;;;;;5.93;4.20;;;;;;;;;;5053831;28;20455;-75
2023/05/29 12:57:49;;;;;;;7.63;4.07;;;;;;;;;;5057319;28;20495;-75
2023/05/29 13:00:17;;;;;;;5.77;4.00;;;;;;;;;;5070836;28;20486;-75
2023/05/29 13:02:45;;;;;;;4.93;3.90;;;;;;;;;;5072331;28;20539;-76
2023/05/29 13:05:15;;;;;;;5.90;4.07;;;;;;;;;;5072157;28;20945;-75
2023/05/29 13:07:42;;;;;;;9.03;4.90;;;;;;;;;;5072366;28;20456;-75
2023/05/29 13:10:10;;;;;;;6.50;4.30;;;;;;;;;;5071982;28;20475;-75
2023/05/29 13:12:37;;;;;;;6.40;4.90;;;;;;;;;;5072021;28;20456;-75
2023/05/29 13:15:04;;;;;;;5.87;3.80;;;;;;;;;;5072418;28;20456;-75
2023/05/29 13:17:31;;;;;;;4.70;3.87;;;;;;;;;;5072209;28;20494;-75
2023/05/29 13:19:58;;;;;;;8.40;4.90;;;;;;;;;;5072009;28;20487;-75
2023/05/29 13:22:31;;;;;;;8.87;4.30;;;;;;;;;;5072435;28;20447;-75
2023/05/29 13:24:58;;;;;;;6.27;4.70;;;;;;;;;;5070042;28;20472;-75
2023/05/29 13:27:25;;;;;;;4.73;3.57;;;;;;;;;;5071822;28;20451;-75
2023/05/29 13:29:52;;;;;;;8.27;6.00;;;;;;;;;;5071551;28;20484;-75
2023/05/29 13:32:19;;;;;;;5.00;3.93;;;;;;;;;;5071709;28;20479;-75
2023/05/29 13:34:47;;;;;;;6.20;4.10;;;;;;;;;;5071857;28;20827;-75
2023/05/29 13:37:14;;;;;;;4.40;3.70;;;;;;;;;;5071721;28;20495;-75
2023/05/29 13:39:42;;;;;;;5.30;4.17;;;;;;;;;;5071343;28;20471;-75
2023/05/29 13:42:10;;;;;;;5.23;3.90;;;;;;;;;;5071629;28;20451;-75
2023/05/29 13:44:38;;;;;;;6.57;4.43;;;;;;;;;;5071946;28;20489;-75
2023/05/29 13:47:06;;;;;;;4.50;3.93;;;;;;;;;;5071601;28;20459;-75
2023/05/29 13:49:33;;;;;;;5.70;4.77;;;;;;;;;;5071672;28;20475;-75
2023/05/29 13:52:00;;;;;;;9.03;5.90;;;;;;;;;;5071585;28;20474;-74
2023/05/29 13:54:29;;;;;;;4.83;3.63;;;;;;;;;;5071443;28;20447;-75
2023/05/29 13:56:58;;;;;;;4.03;3.53;;;;;;;;;;5071596;28;20448;-75
2023/05/29 13:59:25;;;;;;;5.60;4.03;;;;;;;;;;5071184;28;20503;-75
2023/05/29 14:01:52;;;;;;;5.43;3.93;;;;;;;;;;5056337;28;20445;-75
2023/05/29 14:04:19;;;;;;;4.50;3.80;;;;;;;;;;5051273;28;20444;-75
2023/05/29 14:06:46;;;;;;;5.53;4.10;;;;;;;;;;5051520;28;20448;-75
2023/05/29 14:09:13;;;;;;;4.97;4.10;;;;;;;;;;5052212;28;20479;-75
2023/05/29 14:11:41;;;;;;;4.60;3.80;;;;;;;;;;5052638;28;20460;-75
2023/05/29 14:14:09;;;;;;;7.10;3.80;;;;;;;;;;5052743;28;20452;-75
2023/05/29 14:16:37;;;;;;;8.83;4.20;;;;;;;;;;5052844;28;20480;-74
2023/05/29 14:19:04;;;;;;;5.00;4.30;;;;;;;;;;5052340;28;20868;-75
2023/05/29 14:21:31;;;;;;;6.90;4.53;;;;;;;;;;5052836;28;20445;-75
2023/05/29 14:23:58;;;;;;;5.10;4.60;;;;;;;;;;5052133;28;20480;-75
2023/05/29 14:26:25;;;;;;;5.30;4.00;;;;;;;;;;5052799;28;20449;-75
2023/05/29 14:28:53;;;;;;;7.10;4.60;;;;;;;;;;5052317;28;21006;-75
2023/05/29 14:31:21;;;;;;;7.10;4.23;;;;;;;;;;5052599;28;20456;-75
2023/05/29 14:33:48;;;;;;;6.00;4.90;;;;;;;;;;5052876;28;20819;-75
2023/05/29 14:36:15;;;;;;;5.47;4.33;;;;;;;;;;5056263;28;20793;-75
2023/05/29 14:38:44;;;;;;;4.77;4.03;;;;;;;;;;5056303;28;20499;-75
2023/05/29 14:41:11;;;;;;;6.10;3.77;;;;;;;;;;5056500;28;20931;-75
2023/05/29 14:43:39;;;;;;;6.53;4.60;;;;;;;;;;5056331;28;20457;-75